Pskov, Russia
Current Conditions -  °F | °C
As of 3:00 AM on Wednesday 22 Oct 2014 (Local Time) from ULOO Reporting Station
Overcast Overcast  
Wind Chill: 24°   Ceiling: 2400
Heat Index: 30°   Visibility: 4mi
Dew Point: 27°   Wind: 7mph
Humidity: 86%   Direction: 70°ENE
Pressure: 29.88"   Gusts: NA
Location:  57.83°N, 28.33°E
Report Text: ULOO 220000Z 07003MPS P6000 OVC024 M01/M03 Q1012 NOSIG RMKQFE755
Loading
Personal Weather Stations






























Interactive Weather Map
Tropical Storm Tracking
New forecast layout! Learn more

10-Day Weather Forecast

Advertisements
Track Severe Weather on mobile